createdAt,value
2019-03-29T00:00:27.004Z,10.00
2019-03-29T00:03:09.022Z,10.00
2019-03-29T00:05:50.690Z,10.00
2019-03-29T00:08:31.779Z,10.00
2019-03-29T00:11:13.122Z,9.90
2019-03-29T00:13:53.882Z,9.90
2019-03-29T00:16:34.119Z,9.90
2019-03-29T00:19:14.799Z,9.90
2019-03-29T00:21:55.442Z,9.80
2019-03-29T00:24:36.483Z,9.80
2019-03-29T00:27:18.406Z,9.80
2019-03-29T00:30:00.007Z,9.80
2019-03-29T00:32:40.934Z,9.80
2019-03-29T00:35:21.519Z,9.70
2019-03-29T00:38:01.835Z,9.70
2019-03-29T00:40:42.871Z,9.70
2019-03-29T00:43:24.056Z,9.70
2019-03-29T00:46:04.779Z,9.60
2019-03-29T00:48:45.542Z,9.60
2019-03-29T00:54:08.239Z,9.50
2019-03-29T00:59:36.083Z,9.40
2019-03-29T01:04:59.787Z,9.40
2019-03-29T01:10:26.328Z,9.30
2019-03-29T01:15:49.159Z,9.20
2019-03-29T01:18:29.823Z,9.20
2019-03-29T01:21:10.559Z,9.20
2019-03-29T01:23:51.008Z,9.20
2019-03-29T01:26:32.231Z,9.10
2019-03-29T01:29:13.162Z,9.10
2019-03-29T01:31:53.954Z,9.10
2019-03-29T01:34:34.466Z,9.10
2019-03-29T01:37:15.927Z,9.10
2019-03-29T01:39:57.188Z,9.00
2019-03-29T01:42:37.885Z,9.00
2019-03-29T01:45:18.235Z,9.00
2019-03-29T01:47:58.790Z,9.00
2019-03-29T01:50:39.451Z,8.90
2019-03-29T01:53:19.999Z,8.90
2019-03-29T01:56:00.355Z,9.00
2019-03-29T01:58:40.782Z,8.90
2019-03-29T02:01:21.175Z,8.90
2019-03-29T02:04:01.774Z,8.90
2019-03-29T02:06:42.306Z,8.90
2019-03-29T02:09:22.978Z,8.90
2019-03-29T02:12:03.518Z,8.80
2019-03-29T02:14:45.127Z,8.80
2019-03-29T02:17:25.612Z,8.80
2019-03-29T02:20:06.391Z,8.70
2019-03-29T02:22:47.211Z,8.70
2019-03-29T02:25:28.406Z,8.70
2019-03-29T02:28:10.088Z,8.70
2019-03-29T02:30:50.407Z,8.60
2019-03-29T02:33:30.989Z,8.60
2019-03-29T02:36:11.666Z,8.60
2019-03-29T02:38:55.667Z,8.60
2019-03-29T02:41:34.540Z,8.60
2019-03-29T02:44:15.313Z,8.60
2019-03-29T02:46:56.563Z,8.60
2019-03-29T02:49:37.604Z,8.60
2019-03-29T02:57:57.138Z,8.50
2019-03-29T03:00:37.998Z,8.40
2019-03-29T03:03:18.354Z,8.40
2019-03-29T03:05:59.167Z,8.40
2019-03-29T03:08:40.644Z,8.40
2019-03-29T03:11:21.796Z,8.30
2019-03-29T03:14:02.202Z,8.30
2019-03-29T03:16:43.213Z,8.30
2019-03-29T03:19:23.699Z,8.30
2019-03-29T03:22:04.072Z,8.30
2019-03-29T03:24:47.712Z,8.20
2019-03-29T03:27:28.194Z,8.20
2019-03-29T03:30:08.520Z,8.10
2019-03-29T03:32:49.236Z,8.10
2019-03-29T03:35:30.090Z,8.10
2019-03-29T03:38:10.666Z,8.10
2019-03-29T03:40:51.052Z,8.10
2019-03-29T03:43:31.995Z,8.10
2019-03-29T03:46:12.317Z,8.00
2019-03-29T03:48:53.216Z,8.00
2019-03-29T03:51:34.018Z,8.00
2019-03-29T03:54:15.460Z,8.00
2019-03-29T03:56:56.222Z,7.90
2019-03-29T03:59:37.176Z,7.90
2019-03-29T04:02:18.155Z,7.80
2019-03-29T04:04:59.258Z,7.80
2019-03-29T04:07:39.838Z,7.80
2019-03-29T04:13:06.719Z,7.80
2019-03-29T04:15:47.179Z,7.80
2019-03-29T04:18:27.500Z,7.70
2019-03-29T04:21:07.986Z,7.70
2019-03-29T04:23:48.755Z,7.70
2019-03-29T04:29:25.766Z,7.70
2019-03-29T04:32:06.014Z,7.70
2019-03-29T04:40:23.188Z,7.60
2019-03-29T04:45:52.951Z,7.50
2019-03-29T04:51:19.375Z,7.40
2019-03-29T05:25:31.762Z,7.30
2019-03-29T05:28:12.070Z,7.30
2019-03-29T05:30:52.919Z,7.30
2019-03-29T05:33:33.258Z,7.30
2019-03-29T05:36:13.486Z,7.30
2019-03-29T05:38:54.323Z,7.30
2019-03-29T05:41:34.979Z,7.30
2019-03-29T05:44:15.994Z,7.40
2019-03-29T05:46:57.179Z,7.40
2019-03-29T05:49:37.799Z,7.40
2019-03-29T05:52:18.427Z,7.40
2019-03-29T05:54:59.254Z,7.50
2019-03-29T05:57:40.398Z,7.50
2019-03-29T06:00:21.873Z,7.50
2019-03-29T06:03:02.882Z,7.50
2019-03-29T06:05:44.002Z,7.60
2019-03-29T06:08:24.689Z,7.70
2019-03-29T06:11:05.888Z,7.70
2019-03-29T06:13:47.092Z,7.70
2019-03-29T06:16:38.278Z,7.80
2019-03-29T06:19:10.790Z,7.80
2019-03-29T06:21:52.223Z,7.90
2019-03-29T06:24:33.008Z,7.90
2019-03-29T06:27:14.512Z,8.00
2019-03-29T06:29:55.542Z,8.00
2019-03-29T06:32:36.179Z,8.10
2019-03-29T06:35:16.794Z,8.20
2019-03-29T06:37:57.484Z,8.20
2019-03-29T06:40:38.535Z,8.30
2019-03-29T06:43:19.799Z,8.40
2019-03-29T06:46:00.498Z,8.50
2019-03-29T06:48:41.167Z,8.50
2019-03-29T06:51:22.512Z,8.60
2019-03-29T06:54:03.685Z,8.70
2019-03-29T06:56:44.323Z,8.80
2019-03-29T06:59:24.903Z,8.90
2019-03-29T07:02:05.169Z,9.00
2019-03-29T07:04:45.832Z,9.00
2019-03-29T07:07:26.226Z,9.10
2019-03-29T07:10:07.107Z,9.20
2019-03-29T07:12:48.811Z,9.40
2019-03-29T07:21:01.235Z,9.70
2019-03-29T07:26:31.232Z,9.90
2019-03-29T07:29:12.167Z,10.00
2019-03-29T07:31:53.324Z,10.10
2019-03-29T07:34:34.103Z,10.20
2019-03-29T07:37:15.007Z,10.30
2019-03-29T07:39:55.433Z,10.40
2019-03-29T07:42:36.043Z,10.50
2019-03-29T07:45:17.218Z,10.50
2019-03-29T07:47:57.622Z,10.70
2019-03-29T07:50:39.107Z,10.70
2019-03-29T07:53:19.902Z,10.90
2019-03-29T07:56:00.228Z,11.00
2019-03-29T07:58:40.919Z,11.10
2019-03-29T08:01:21.422Z,11.20
2019-03-29T08:04:02.340Z,11.30
2019-03-29T08:06:46.439Z,11.50
2019-03-29T08:09:27.189Z,11.60
2019-03-29T08:12:08.004Z,11.70
2019-03-29T08:14:49.042Z,11.80
2019-03-29T08:17:29.924Z,12.00
2019-03-29T08:20:37.622Z,12.10
2019-03-29T08:22:53.376Z,12.20
2019-03-29T08:25:34.555Z,12.40
2019-03-29T08:28:15.039Z,12.50
2019-03-29T08:30:55.733Z,12.70
2019-03-29T08:33:36.479Z,12.80
2019-03-29T08:36:17.401Z,12.90
2019-03-29T08:38:57.940Z,13.10
2019-03-29T08:41:37.130Z,13.10
2019-03-29T08:44:25.252Z,13.30
2019-03-29T08:47:13.621Z,13.50
2019-03-29T08:50:02.002Z,13.60
2019-03-29T08:55:57.679Z,13.80
2019-03-29T09:04:30.487Z,14.00
2019-03-29T09:07:18.851Z,14.20
2019-03-29T09:10:28.861Z,14.40
2019-03-29T09:13:17.098Z,14.60
2019-03-29T09:16:07.172Z,14.80
2019-03-29T09:18:55.287Z,14.80
2019-03-29T09:21:43.410Z,14.90
2019-03-29T09:24:31.802Z,15.10
2019-03-29T09:27:20.155Z,15.30
2019-03-29T09:30:08.319Z,15.40
2019-03-29T09:32:56.683Z,15.50
2019-03-29T09:38:52.583Z,15.90
2019-03-29T09:41:40.705Z,16.00
2019-03-29T09:44:29.074Z,15.70
2019-03-29T09:47:17.261Z,15.50
2019-03-29T09:50:05.638Z,15.30
2019-03-29T09:52:47.351Z,15.10
2019-03-29T09:55:28.087Z,15.40
2019-03-29T09:58:08.312Z,15.60
2019-03-29T10:00:49.175Z,15.60
2019-03-29T10:03:30.428Z,15.50
2019-03-29T10:08:57.176Z,15.20
2019-03-29T10:17:09.563Z,14.90
2019-03-29T10:25:20.366Z,15.00
2019-03-29T10:28:02.399Z,15.10
2019-03-29T10:33:28.027Z,15.10
2019-03-29T10:55:34.994Z,15.20
2019-03-29T10:58:15.740Z,15.20
2019-03-29T11:00:56.911Z,15.30
2019-03-29T11:03:38.364Z,15.20
2019-03-29T11:06:19.799Z,15.30
2019-03-29T11:09:00.351Z,15.20
2019-03-29T11:11:40.774Z,15.20
2019-03-29T11:14:21.647Z,15.20
2019-03-29T11:17:02.720Z,15.50
2019-03-29T11:19:43.458Z,15.60
2019-03-29T11:22:24.115Z,15.60
2019-03-29T11:25:05.003Z,15.90
2019-03-29T11:27:46.021Z,16.60
2019-03-29T11:30:26.483Z,17.70
2019-03-29T11:33:07.526Z,18.50
2019-03-29T11:35:48.123Z,19.30
2019-03-29T11:38:28.710Z,19.60
2019-03-29T11:41:09.531Z,19.70
2019-03-29T11:43:50.561Z,20.20
2019-03-29T11:46:31.208Z,20.20
2019-03-29T11:49:12.551Z,20.20
2019-03-29T11:51:53.263Z,20.60
2019-03-29T11:54:34.562Z,21.10
2019-03-29T11:57:15.627Z,21.50
2019-03-29T11:59:56.574Z,21.10
2019-03-29T12:02:37.694Z,20.40
2019-03-29T12:05:18.664Z,20.10
2019-03-29T12:07:59.892Z,20.50
2019-03-29T12:10:40.822Z,21.20
2019-03-29T12:13:22.047Z,21.80
2019-03-29T12:16:03.786Z,21.30
2019-03-29T12:18:44.930Z,21.00
2019-03-29T12:21:25.664Z,21.20
2019-03-29T12:24:07.227Z,21.90
2019-03-29T12:26:48.106Z,22.40
2019-03-29T12:29:29.382Z,22.60
2019-03-29T12:32:10.238Z,22.40
2019-03-29T12:34:51.167Z,22.20
2019-03-29T12:37:32.376Z,21.50
2019-03-29T12:40:11.587Z,21.00
2019-03-29T12:42:59.713Z,20.60
2019-03-29T12:45:47.826Z,20.90
2019-03-29T12:48:28.535Z,20.90
2019-03-29T12:51:09.143Z,21.00
2019-03-29T12:53:49.766Z,21.60
2019-03-29T12:56:30.126Z,22.20
2019-03-29T12:59:10.823Z,22.90
2019-03-29T13:01:51.523Z,23.10
2019-03-29T13:04:32.224Z,23.30
2019-03-29T13:07:12.788Z,23.70
2019-03-29T13:09:53.423Z,24.00
2019-03-29T13:12:34.339Z,24.00
2019-03-29T13:15:05.931Z,24.10
2019-03-29T13:17:54.071Z,23.90
2019-03-29T13:20:42.446Z,23.70
2019-03-29T13:23:30.570Z,23.80
2019-03-29T13:26:18.698Z,23.70
2019-03-29T13:29:06.818Z,23.80
2019-03-29T13:31:54.930Z,23.60
2019-03-29T13:34:43.071Z,23.70
2019-03-29T13:37:31.191Z,23.80
2019-03-29T13:40:21.186Z,23.60
2019-03-29T13:43:09.738Z,23.50
2019-03-29T13:45:58.123Z,23.40
2019-03-29T13:48:39.219Z,23.40
2019-03-29T13:51:20.099Z,23.70
2019-03-29T13:54:01.375Z,23.80
2019-03-29T13:56:43.036Z,24.00
2019-03-29T13:59:23.935Z,24.20
2019-03-29T14:02:05.142Z,24.10
2019-03-29T14:04:45.863Z,23.70
2019-03-29T14:07:26.764Z,23.60
2019-03-29T14:10:08.022Z,23.50
2019-03-29T14:12:48.689Z,23.60
2019-03-29T14:15:29.196Z,23.70
2019-03-29T14:18:09.887Z,23.60
2019-03-29T14:20:50.443Z,23.90
2019-03-29T14:23:30.975Z,24.00
2019-03-29T14:26:12.425Z,24.00
2019-03-29T14:28:53.184Z,24.30
2019-03-29T14:31:34.351Z,24.20
2019-03-29T14:34:15.190Z,24.20
2019-03-29T14:36:59.164Z,24.30
2019-03-29T14:39:38.855Z,24.30
2019-03-29T14:42:19.544Z,24.40
2019-03-29T14:44:59.857Z,24.60
2019-03-29T14:47:43.594Z,24.70
2019-03-29T14:50:23.450Z,24.90
2019-03-29T14:53:04.672Z,24.90
2019-03-29T14:55:45.170Z,24.80
2019-03-29T14:58:25.510Z,24.50
2019-03-29T15:01:06.418Z,24.10
2019-03-29T15:03:47.871Z,23.90
2019-03-29T15:06:29.076Z,23.90
2019-03-29T15:09:09.571Z,24.10
2019-03-29T15:11:50.703Z,24.00
2019-03-29T15:14:31.327Z,23.70
2019-03-29T15:17:12.068Z,23.80
2019-03-29T15:19:52.899Z,23.90
2019-03-29T15:22:33.307Z,23.90
2019-03-29T15:25:13.991Z,24.00
2019-03-29T15:27:54.951Z,23.80
2019-03-29T15:30:35.481Z,23.80
2019-03-29T15:33:16.309Z,23.70
2019-03-29T15:35:56.847Z,23.50
2019-03-29T15:38:38.767Z,23.60
2019-03-29T15:41:19.194Z,23.70
2019-03-29T15:44:00.051Z,23.90
2019-03-29T15:49:26.868Z,24.30
2019-03-29T15:52:07.847Z,24.40
2019-03-29T15:54:48.418Z,24.50
2019-03-29T15:57:29.366Z,24.50
2019-03-29T16:00:11.591Z,24.50
2019-03-29T16:08:25.439Z,24.00
2019-03-29T16:11:08.993Z,23.80
2019-03-29T16:13:48.599Z,23.70
2019-03-29T16:21:57.992Z,23.00
2019-03-29T16:24:38.827Z,22.60
2019-03-29T16:30:01.699Z,22.40
2019-03-29T16:38:13.712Z,21.80
2019-03-29T16:40:54.211Z,21.80
2019-03-29T16:43:35.554Z,21.80
2019-03-29T16:46:16.171Z,21.80
2019-03-29T16:48:56.867Z,21.50
2019-03-29T16:51:37.652Z,21.10
2019-03-29T16:54:18.217Z,20.90
2019-03-29T16:56:58.876Z,20.70
2019-03-29T16:59:39.969Z,20.50
2019-03-29T17:02:21.564Z,20.10
2019-03-29T17:05:02.012Z,19.90
2019-03-29T17:07:43.035Z,19.80
2019-03-29T17:10:24.510Z,19.60
2019-03-29T17:13:04.827Z,19.50
2019-03-29T17:15:45.437Z,19.30
2019-03-29T17:18:29.452Z,19.20
2019-03-29T17:21:09.304Z,19.10
2019-03-29T17:23:52.624Z,18.80
2019-03-29T17:26:32.643Z,18.60
2019-03-29T17:29:13.474Z,18.50
2019-03-29T17:31:54.658Z,18.40
2019-03-29T17:34:35.372Z,18.30
2019-03-29T17:37:15.042Z,18.20
2019-03-29T17:40:03.256Z,18.10
2019-03-29T17:42:51.394Z,17.90
2019-03-29T17:45:39.763Z,17.80
2019-03-29T17:48:27.870Z,17.70
2019-03-29T17:51:08.812Z,17.60
2019-03-29T17:53:49.583Z,17.50
2019-03-29T17:56:30.744Z,17.40
2019-03-29T17:59:11.859Z,17.30
2019-03-29T18:01:52.851Z,17.20
2019-03-29T18:04:34.046Z,17.00
2019-03-29T18:07:15.039Z,16.90
2019-03-29T18:09:55.711Z,16.90
2019-03-29T18:12:36.571Z,16.70
2019-03-29T18:23:45.754Z,16.30
2019-03-29T18:26:26.605Z,16.20
2019-03-29T18:29:07.551Z,16.10
2019-03-29T18:31:47.878Z,15.90
2019-03-29T18:34:28.203Z,15.80
2019-03-29T18:37:08.983Z,15.70
2019-03-29T18:39:50.059Z,15.60
2019-03-29T18:42:31.102Z,15.50
2019-03-29T18:45:11.426Z,15.40
2019-03-29T18:47:52.411Z,15.30
2019-03-29T18:50:33.913Z,15.20
2019-03-29T18:53:14.403Z,15.10
2019-03-29T18:55:55.038Z,15.00
2019-03-29T18:58:35.659Z,14.90
2019-03-29T19:01:16.293Z,14.80
2019-03-29T19:03:56.582Z,14.80
2019-03-29T19:06:37.175Z,14.70
2019-03-29T19:09:18.130Z,14.60
2019-03-29T19:11:58.775Z,14.50
2019-03-29T19:14:41.613Z,14.40
2019-03-29T19:17:22.387Z,14.30
2019-03-29T19:20:03.028Z,14.20
2019-03-29T19:22:43.254Z,14.10
2019-03-29T19:25:24.136Z,14.00
2019-03-29T19:28:04.699Z,14.00
2019-03-29T19:30:44.966Z,13.90
2019-03-29T19:33:25.750Z,13.90
2019-03-29T19:36:06.547Z,13.80
2019-03-29T19:38:47.295Z,13.70
2019-03-29T19:41:28.357Z,13.60
2019-03-29T19:44:08.922Z,13.60
2019-03-29T19:46:49.966Z,13.50
2019-03-29T19:49:31.122Z,13.40
2019-03-29T19:54:54.375Z,13.30
2019-03-29T19:57:35.131Z,13.20
2019-03-29T20:00:16.084Z,13.20
2019-03-29T20:02:57.060Z,13.10
2019-03-29T20:05:37.879Z,13.00
2019-03-29T20:08:18.509Z,12.90
2019-03-29T20:10:59.350Z,12.90
2019-03-29T20:13:40.638Z,12.80
2019-03-29T20:16:22.300Z,12.80
2019-03-29T20:21:50.943Z,12.60
2019-03-29T20:24:32.503Z,12.50
2019-03-29T20:29:58.459Z,12.40
2019-03-29T20:35:24.769Z,12.20
2019-03-29T20:40:50.451Z,12.10
2019-03-29T20:49:05.066Z,11.90
2019-03-29T20:51:49.251Z,11.90
2019-03-29T21:00:05.343Z,11.70
2019-03-29T21:16:42.471Z,11.40
2019-03-29T21:19:23.285Z,11.40
2019-03-29T21:22:07.832Z,11.30
2019-03-29T21:30:23.958Z,11.10
2019-03-29T21:33:04.654Z,11.10
2019-03-29T21:35:45.311Z,11.10
2019-03-29T21:38:25.926Z,11.00
2019-03-29T21:41:07.635Z,11.00
2019-03-29T21:43:48.394Z,11.00
2019-03-29T21:46:29.122Z,11.00
2019-03-29T21:49:09.884Z,10.90
2019-03-29T21:51:50.711Z,10.90
2019-03-29T21:54:31.648Z,10.80
2019-03-29T21:57:12.478Z,10.80
2019-03-29T21:59:52.871Z,10.80
2019-03-29T22:02:33.991Z,10.70
2019-03-29T22:05:15.350Z,10.70
2019-03-29T22:07:56.331Z,10.70
2019-03-29T22:10:37.758Z,10.70
2019-03-29T22:13:18.074Z,10.60
2019-03-29T22:15:58.878Z,10.60
2019-03-29T22:18:39.627Z,10.60
2019-03-29T22:21:20.786Z,10.50
2019-03-29T22:24:01.763Z,10.50
2019-03-29T22:26:41.219Z,10.50
2019-03-29T22:29:29.607Z,10.50
2019-03-29T22:32:17.730Z,10.40
2019-03-29T22:38:34.779Z,10.40
2019-03-29T22:41:22.891Z,10.40
2019-03-29T22:44:12.754Z,10.30
2019-03-29T22:47:01.153Z,10.30
2019-03-29T22:49:49.594Z,10.20
2019-03-29T22:52:30.352Z,10.20
2019-03-29T22:55:10.864Z,10.20
2019-03-29T23:20:50.330Z,9.80
2019-03-29T23:23:31.763Z,9.70
2019-03-29T23:26:12.910Z,9.70
2019-03-29T23:28:53.939Z,9.70
2019-03-29T23:31:34.731Z,9.60
2019-03-29T23:34:16.091Z,9.60
2019-03-29T23:36:57.586Z,9.50
2019-03-29T23:39:37.838Z,9.50
2019-03-29T23:42:18.622Z,9.40
2019-03-29T23:45:00.274Z,9.40
2019-03-29T23:47:41.322Z,9.40
2019-03-29T23:50:21.586Z,9.40
2019-03-29T23:53:02.223Z,9.30
2019-03-29T23:55:42.598Z,9.30
2019-03-29T23:58:23.487Z,9.30
